Strona główna
METAR-TAF:

METAR-TAF

Lotnisko :

Platforma wiertnicza

Troll A, Norwegia

Szerokość geograficzna: 60-38-42N, Długość geograficzna: 3-43-29E, wysokość: 20 m

Aktualna obserwacja pogody

Raport powstał 37 minut temu, godzina 06:20 UTC
Wiatr 33 kt od południowo-południowy wschód
Temperatura 6°C
Wilgotność 65%
Ciśnienie 980 hPa
Widzialność 10 km lub więcej

METAR: ENQA 130620Z AUTO 15033KT 9999NDV FEW029/// SCT075/// BKN120/// 06/00 Q0980 W06/S5

czas: 07:57 (06:57 UTC)


TAF: brakujący

Obserwacja i prognoza pogody dla ponad 4000 lotnisk (raport METAR i TAF).

Dostępne stacje oznaczono żółtymi i czerwonymi punktami na mapie.

Najedź kursorem aby zobaczyć nazwę stacji.

Kliknij aby zobaczyć obserwacje i prognozy pogody.

Aby zmienić mapę: kliknij na zielony przycisk z czarnym krzyżykiem, aby powiększyć; na zielony przycisk z myślnikiem, aby pomniejszyć; na zielone strzałki, aby przejść do map sąsiednich.


METAR-TAF: